Estación Meteorológica Peña el Pijo (Robertgarden) [ 11/24/17 15:40:20 CET ]

Fecha Hora Presion(HPa) Temp (°C) Humedad % Rocio (°C) Viento ( m/s) Direccion Lluvia 1Hora(mm) Lluvia 24H(mm) LLuvia Total(mm)
2017-Apr-28 01:01:38 1004.500 7.4 90 5.9       11.91 1370.62
2017-Apr-28 02:01:35 1004.600 7.1 90 5.6     0.51 12.43 1371.14
2017-Apr-28 03:02:19 1004.100 6.7 90 5.2     1.03 13.46 1372.18
2017-Apr-28 04:01:43 1004.800 6.2 90 4.7     3.10 16.57 1375.29
2017-Apr-28 05:01:42 1004.300 5.7 91 4.3     1.55 18.13 1376.84
2017-Apr-28 06:01:40 1004.400 5.0 90 3.5       17.61 1376.84
2017-Apr-28 07:01:40 1004.200 4.3 90 2.8     0.51 18.13 1377.36
2017-Apr-28 08:01:43 1004.500 3.9 90 2.4       18.13 1377.36
2017-Apr-28 09:02:04 1004.700 4.2 90 2.7       18.13 1377.36
2017-Apr-28 10:01:38 1004.500 4.6 90 3.1     0.51 18.64 1377.88
2017-Apr-28 11:01:47 1005.200 5.1 90 3.6       18.64 1377.88
2017-Apr-28 12:01:34 1005.400 5.5 90 4.0     1.03 19.68 1378.91
2017-Apr-28 13:01:38 1005.600 6.1 89 4.4       19.68 1378.91
2017-Apr-28 14:01:36 1005.500 6.0 89 4.3     0.51 20.20 1379.43
2017-Apr-28 15:01:39 1005.300 6.4 88 4.6     1.03 21.23 1380.47
2017-Apr-28 16:01:38 1005.300 7.1 87 5.1       20.72 1380.47
2017-Apr-28 17:01:48 1004.900 6.9 86 4.7     0.51 18.64 1380.98
2017-Apr-28 18:02:03 1004.800 7.2 85 4.8       16.05 1380.98
2017-Apr-28 19:01:40 1004.600 7.3 85 4.9       15.54 1380.98
2017-Apr-28 20:01:45 1004.800 6.9 85 4.5       14.50 1380.98
2017-Apr-28 21:01:32 1005.000 6.4 86 4.2     0.51 12.95 1381.50
2017-Apr-28 22:01:55 1005.400 6.2 87 4.2       11.91 1381.50
2017-Apr-28 23:01:26 1005.500 6.1 88 4.3     0.51 11.39 1382.02

Temperatura Máxima:    Temperatura Mínima:
Presión Máxima:1005.600 Hpa    Presión Mínima:1004.100 Hpa


Volver